Limington, Maine
Current Conditions -  °F | °C
As of 1:51 PM on Sunday 21 Dec 2014 (Local Time) from KPWM Reporting Station
Broken Clouds Broken Clouds  
Wind Chill: 28°   Ceiling: 12000
Heat Index: 33°   Visibility: 10mi
Dew Point: 24°   Wind: 6mph
Humidity: 70%   Direction: 330°NNW
Pressure: 30.32"   Gusts: NA
Location:  43.76°N, 70.67°W
Report Text: KPWM 211851Z 33005KT 10SM FEW047 BKN120 01/M04 A3032 RMK AO2 SNE00 SLP269 P0000 T00061044
Loading
Personal Weather Stations






























Interactive Weather Map New forecast layout! Learn more

10-Day Weather Forecast

Advertisements
Track Severe Weather on mobile